createdAt,value
2018-08-31T00:00:03.108Z,2.37
2018-08-31T00:02:39.621Z,2.10
2018-08-31T00:05:46.878Z,2.77
2018-08-31T00:08:24.658Z,2.33
2018-08-31T00:11:02.244Z,1.90
2018-08-31T00:13:29.809Z,1.87
2018-08-31T00:15:57.239Z,1.93
2018-08-31T00:18:24.641Z,2.40
2018-08-31T00:20:52.097Z,3.00
2018-08-31T00:23:29.713Z,1.80
2018-08-31T00:26:11.082Z,1.67
2018-08-31T00:29:04.896Z,2.50
2018-08-31T00:31:48.522Z,2.77
2018-08-31T00:36:29.801Z,1.90
2018-08-31T00:41:10.374Z,2.83
2018-08-31T00:43:48.102Z,2.60
2018-08-31T00:46:15.490Z,2.60
2018-08-31T00:48:42.904Z,2.93
2018-08-31T00:51:10.374Z,3.00
2018-08-31T00:53:37.902Z,2.60
2018-08-31T00:56:06.247Z,2.90
2018-08-31T00:58:34.084Z,2.70
2018-08-31T01:01:01.698Z,3.13
2018-08-31T01:03:29.111Z,2.53
2018-08-31T01:05:56.512Z,3.43
2018-08-31T01:08:24.022Z,2.70
2018-08-31T01:10:51.425Z,3.03
2018-08-31T01:13:18.861Z,2.97
2018-08-31T01:15:46.281Z,2.67
2018-08-31T01:18:13.717Z,3.20
2018-08-31T01:20:41.173Z,3.00
2018-08-31T01:23:08.812Z,2.67
2018-08-31T01:25:37.746Z,2.87
2018-08-31T01:28:05.322Z,2.93
2018-08-31T01:30:32.779Z,2.50
2018-08-31T01:33:00.223Z,2.80
2018-08-31T01:35:27.815Z,3.17
2018-08-31T01:37:55.272Z,3.60
2018-08-31T01:40:22.711Z,3.30
2018-08-31T01:42:50.935Z,3.23
2018-08-31T01:45:18.630Z,3.17
2018-08-31T01:47:46.330Z,3.23
2018-08-31T01:50:13.764Z,2.97
2018-08-31T01:52:41.304Z,3.20
2018-08-31T01:55:08.681Z,2.70
2018-08-31T01:57:36.389Z,3.50
2018-08-31T02:00:03.913Z,3.37
2018-08-31T02:02:31.607Z,3.30
2018-08-31T02:04:59.498Z,3.20
2018-08-31T02:07:27.054Z,3.00
2018-08-31T02:09:55.110Z,3.50
2018-08-31T02:12:22.658Z,3.53
2018-08-31T02:14:50.105Z,3.20
2018-08-31T02:17:17.523Z,2.90
2018-08-31T02:19:44.966Z,4.80
2018-08-31T02:22:12.341Z,3.27
2018-08-31T02:24:40.157Z,3.30
2018-08-31T02:27:08.239Z,3.70
2018-08-31T02:29:35.623Z,4.27
2018-08-31T02:32:03.058Z,4.57
2018-08-31T02:34:30.505Z,3.53
2018-08-31T02:36:57.933Z,3.50
2018-08-31T02:39:25.464Z,3.80
2018-08-31T02:41:52.845Z,3.60
2018-08-31T02:44:20.253Z,3.80
2018-08-31T02:46:47.806Z,3.37
2018-08-31T02:49:15.429Z,3.10
2018-08-31T02:51:43.082Z,3.80
2018-08-31T02:54:10.671Z,3.50
2018-08-31T02:56:38.071Z,3.17
2018-08-31T02:59:05.561Z,3.00
2018-08-31T03:01:33.041Z,3.20
2018-08-31T03:04:00.452Z,3.60
2018-08-31T03:06:27.862Z,4.10
2018-08-31T03:08:55.437Z,3.23
2018-08-31T03:11:23.041Z,3.70
2018-08-31T03:13:51.338Z,3.60
2018-08-31T03:16:18.793Z,4.10
2018-08-31T03:18:46.337Z,3.33
2018-08-31T03:21:14.700Z,5.80
2018-08-31T03:23:42.158Z,4.57
2018-08-31T03:26:09.622Z,4.07
2018-08-31T03:28:37.050Z,4.17
2018-08-31T03:31:04.517Z,4.17
2018-08-31T03:33:32.330Z,4.53
2018-08-31T03:35:59.843Z,4.13
2018-08-31T03:38:28.725Z,3.87
2018-08-31T03:40:56.134Z,3.40
2018-08-31T03:43:23.577Z,3.60
2018-08-31T03:45:51.868Z,4.73
2018-08-31T03:48:19.389Z,3.73
2018-08-31T03:50:46.782Z,4.10
2018-08-31T03:53:14.194Z,4.50
2018-08-31T03:55:42.117Z,3.80
2018-08-31T03:58:09.569Z,3.80
2018-08-31T04:00:37.355Z,3.83
2018-08-31T04:03:05.245Z,4.70
2018-08-31T04:05:32.713Z,3.73
2018-08-31T04:08:00.173Z,4.17
2018-08-31T04:10:27.639Z,3.50
2018-08-31T04:12:55.982Z,3.90
2018-08-31T04:15:23.525Z,3.70
2018-08-31T04:17:51.101Z,3.70
2018-08-31T04:20:19.049Z,4.17
2018-08-31T04:22:46.469Z,4.53
2018-08-31T04:25:13.881Z,4.00
2018-08-31T04:27:41.305Z,4.47
2018-08-31T04:30:09.990Z,4.43
2018-08-31T04:32:37.390Z,4.17
2018-08-31T04:35:04.897Z,4.20
2018-08-31T04:37:32.371Z,5.03
2018-08-31T04:40:00.100Z,4.20
2018-08-31T04:42:27.886Z,4.57
2018-08-31T04:44:56.318Z,4.43
2018-08-31T04:47:23.881Z,4.67
2018-08-31T04:49:51.262Z,4.53
2018-08-31T04:52:18.696Z,4.33
2018-08-31T04:54:46.116Z,4.70
2018-08-31T04:57:13.683Z,4.97
2018-08-31T04:59:41.102Z,4.70
2018-08-31T05:02:08.490Z,4.43
2018-08-31T05:04:35.974Z,4.00
2018-08-31T05:07:03.465Z,5.57
2018-08-31T05:09:30.879Z,5.20
2018-08-31T05:11:58.726Z,5.83
2018-08-31T05:14:26.338Z,5.23
2018-08-31T05:16:53.972Z,5.13
2018-08-31T05:19:22.638Z,5.23
2018-08-31T05:21:50.163Z,5.10
2018-08-31T05:24:17.578Z,5.57
2018-08-31T05:26:45.031Z,5.40
2018-08-31T05:29:12.482Z,4.70
2018-08-31T05:31:39.981Z,5.77
2018-08-31T05:34:07.616Z,5.30
2018-08-31T05:36:35.171Z,4.77
2018-08-31T05:39:04.402Z,4.90
2018-08-31T05:41:31.917Z,4.43
2018-08-31T05:43:59.429Z,4.77
2018-08-31T05:46:26.829Z,4.60
2018-08-31T05:48:54.865Z,4.57
2018-08-31T05:51:22.249Z,4.67
2018-08-31T05:53:49.833Z,4.93
2018-08-31T05:56:17.571Z,4.27
2018-08-31T05:58:45.181Z,4.80
2018-08-31T06:01:12.830Z,4.80
2018-08-31T06:03:40.243Z,4.77
2018-08-31T06:06:07.670Z,4.67
2018-08-31T06:08:35.136Z,5.50
2018-08-31T06:11:02.609Z,3.90
2018-08-31T06:13:30.035Z,5.83
2018-08-31T06:15:57.554Z,5.60
2018-08-31T06:18:24.954Z,5.33
2018-08-31T06:20:52.401Z,4.20
2018-08-31T06:23:19.785Z,4.80
2018-08-31T06:25:47.239Z,4.50
2018-08-31T06:28:14.714Z,3.50
2018-08-31T06:30:42.625Z,4.00
2018-08-31T06:33:10.029Z,4.27
2018-08-31T06:35:37.453Z,3.37
2018-08-31T06:38:05.050Z,4.17
2018-08-31T06:40:32.501Z,3.53
2018-08-31T06:43:00.604Z,2.67
2018-08-31T06:45:28.324Z,3.63
2018-08-31T06:47:55.776Z,3.00
2018-08-31T06:50:23.166Z,3.43
2018-08-31T06:52:50.621Z,3.30
2018-08-31T06:55:18.295Z,2.70
2018-08-31T06:57:45.928Z,2.80
2018-08-31T07:00:13.665Z,2.73
2018-08-31T07:02:41.406Z,2.90
2018-08-31T07:05:09.061Z,2.70
2018-08-31T07:07:37.694Z,2.50
2018-08-31T07:10:05.978Z,2.50
2018-08-31T07:12:33.744Z,2.27
2018-08-31T07:15:01.298Z,3.50
2018-08-31T07:17:28.808Z,2.50
2018-08-31T07:19:56.588Z,3.00
2018-08-31T07:22:23.892Z,2.87
2018-08-31T07:24:51.364Z,2.07
2018-08-31T07:27:19.164Z,2.60
2018-08-31T07:29:46.723Z,3.47
2018-08-31T07:32:14.415Z,2.50
2018-08-31T07:34:42.103Z,2.70
2018-08-31T07:37:09.563Z,2.27
2018-08-31T07:39:37.054Z,2.10
2018-08-31T07:42:04.901Z,2.20
2018-08-31T07:44:32.424Z,1.77
2018-08-31T07:47:00.134Z,3.20
2018-08-31T07:49:28.650Z,1.90
2018-08-31T07:51:56.522Z,2.10
2018-08-31T07:54:23.946Z,1.70
2018-08-31T07:56:51.517Z,1.73
2018-08-31T07:59:18.999Z,1.93
2018-08-31T08:01:46.510Z,1.67
2018-08-31T08:04:15.286Z,1.70
2018-08-31T08:06:43.124Z,1.80
2018-08-31T08:09:10.950Z,1.43
2018-08-31T08:11:38.599Z,2.10
2018-08-31T08:14:06.666Z,1.50
2018-08-31T08:16:34.426Z,2.57
2018-08-31T08:19:02.002Z,1.57
2018-08-31T08:21:29.635Z,1.80
2018-08-31T08:23:57.117Z,1.67
2018-08-31T08:26:24.710Z,1.77
2018-08-31T08:28:52.353Z,1.67
2018-08-31T08:31:20.057Z,1.90
2018-08-31T08:33:47.687Z,1.80
2018-08-31T08:36:15.131Z,1.67
2018-08-31T08:38:42.561Z,1.37
2018-08-31T08:41:10.425Z,1.63
2018-08-31T08:43:37.940Z,3.60
2018-08-31T08:46:05.767Z,1.70
2018-08-31T08:48:33.355Z,1.73
2018-08-31T08:51:01.658Z,1.43
2018-08-31T08:53:30.787Z,1.97
2018-08-31T08:55:58.325Z,1.67
2018-08-31T08:58:25.767Z,1.70
2018-08-31T09:00:53.275Z,2.07
2018-08-31T09:03:20.971Z,1.90
2018-08-31T09:05:48.361Z,1.70
2018-08-31T09:08:15.967Z,1.73
2018-08-31T09:10:43.393Z,1.70
2018-08-31T09:13:10.803Z,1.73
2018-08-31T09:15:38.293Z,1.57
2018-08-31T09:18:05.854Z,2.00
2018-08-31T09:20:33.288Z,1.57
2018-08-31T09:23:00.751Z,2.30
2018-08-31T09:25:28.454Z,1.73
2018-08-31T09:27:57.076Z,1.20
2018-08-31T09:30:30.194Z,1.77
2018-08-31T09:33:03.025Z,1.80
2018-08-31T09:35:30.492Z,2.47
2018-08-31T09:37:58.712Z,1.97
2018-08-31T09:40:26.198Z,1.83
2018-08-31T09:42:53.693Z,1.60
2018-08-31T09:45:21.082Z,1.80
2018-08-31T09:47:48.559Z,1.90
2018-08-31T09:50:15.992Z,1.83
2018-08-31T09:52:43.955Z,1.67
2018-08-31T09:55:11.774Z,1.60
2018-08-31T09:57:39.534Z,2.00
2018-08-31T10:00:07.747Z,1.60
2018-08-31T10:02:38.752Z,1.83
2018-08-31T10:05:07.025Z,1.47
2018-08-31T10:07:34.549Z,2.20
2018-08-31T10:10:01.995Z,1.67
2018-08-31T10:12:29.407Z,1.63
2018-08-31T10:14:57.773Z,1.87
2018-08-31T10:17:25.461Z,1.63
2018-08-31T10:19:53.709Z,1.90
2018-08-31T10:22:21.282Z,2.80
2018-08-31T10:24:48.665Z,1.80
2018-08-31T10:27:16.394Z,1.60
2018-08-31T10:29:44.075Z,1.80
2018-08-31T10:32:11.769Z,1.73
2018-08-31T10:34:39.494Z,2.20
2018-08-31T10:37:06.905Z,1.93
2018-08-31T10:39:34.384Z,1.70
2018-08-31T10:42:01.932Z,1.77
2018-08-31T10:44:29.370Z,1.90
2018-08-31T10:46:57.518Z,1.73
2018-08-31T10:49:25.135Z,1.87
2018-08-31T10:51:52.642Z,1.50
2018-08-31T10:54:20.115Z,1.70
2018-08-31T10:56:48.812Z,1.40
2018-08-31T10:59:16.239Z,1.40
2018-08-31T11:01:44.443Z,1.30
2018-08-31T11:04:11.829Z,1.83
2018-08-31T11:06:39.281Z,2.67
2018-08-31T11:09:07.251Z,2.00
2018-08-31T11:11:35.353Z,2.80
2018-08-31T11:14:03.090Z,2.07
2018-08-31T11:16:30.478Z,1.60
2018-08-31T11:18:58.890Z,2.20
2018-08-31T11:21:27.341Z,2.03
2018-08-31T11:23:54.832Z,3.03
2018-08-31T11:26:22.239Z,2.57
2018-08-31T11:28:49.786Z,2.13
2018-08-31T11:31:17.213Z,1.33
2018-08-31T11:33:44.681Z,1.43
2018-08-31T11:36:12.281Z,1.27
2018-08-31T11:38:40.139Z,1.30
2018-08-31T11:41:07.610Z,2.03
2018-08-31T11:43:35.514Z,1.63
2018-08-31T11:46:03.010Z,1.27
2018-08-31T11:48:30.549Z,1.83
2018-08-31T11:50:58.743Z,2.37
2018-08-31T11:53:26.353Z,1.70
2018-08-31T11:55:54.004Z,1.30
2018-08-31T11:58:21.507Z,1.40
2018-08-31T12:00:49.071Z,1.50
2018-08-31T12:03:17.086Z,1.33
2018-08-31T12:05:45.394Z,1.80
2018-08-31T12:08:13.642Z,2.07
2018-08-31T12:10:41.356Z,1.70
2018-08-31T12:13:08.814Z,1.30
2018-08-31T12:15:36.272Z,1.90
2018-08-31T12:18:03.743Z,1.30
2018-08-31T12:20:31.386Z,1.83
2018-08-31T12:22:59.081Z,1.60
2018-08-31T12:25:26.603Z,2.20
2018-08-31T12:27:54.096Z,1.50
2018-08-31T12:30:21.711Z,1.20
2018-08-31T12:32:49.429Z,2.93
2018-08-31T12:35:16.981Z,1.33
2018-08-31T12:37:44.669Z,1.67
2018-08-31T12:40:12.311Z,1.53
2018-08-31T12:42:39.680Z,2.80
2018-08-31T12:45:07.295Z,2.20
2018-08-31T12:47:35.038Z,1.73
2018-08-31T12:50:02.629Z,1.60
2018-08-31T12:52:30.095Z,2.67
2018-08-31T12:54:58.470Z,1.10
2018-08-31T12:57:26.238Z,1.23
2018-08-31T12:59:59.726Z,1.37
2018-08-31T13:02:28.249Z,1.20
2018-08-31T13:04:55.911Z,0.93
2018-08-31T13:07:23.483Z,1.23
2018-08-31T13:09:50.924Z,1.23
2018-08-31T13:12:18.455Z,2.03
2018-08-31T13:14:46.203Z,1.53
2018-08-31T13:17:13.805Z,1.10
2018-08-31T13:19:41.338Z,1.10
2018-08-31T13:22:08.937Z,2.53
2018-08-31T13:24:36.466Z,1.40
2018-08-31T13:27:04.337Z,1.00
2018-08-31T13:29:32.273Z,1.97
2018-08-31T13:31:59.766Z,1.17
2018-08-31T13:34:27.270Z,1.20
2018-08-31T13:36:54.748Z,1.10
2018-08-31T13:39:22.211Z,1.30
2018-08-31T13:41:49.939Z,1.70
2018-08-31T13:44:17.423Z,1.20
2018-08-31T13:46:44.870Z,1.00
2018-08-31T13:49:12.447Z,1.27
2018-08-31T13:51:40.111Z,1.43
2018-08-31T13:54:07.822Z,1.40
2018-08-31T13:56:35.896Z,1.30
2018-08-31T13:59:04.266Z,1.37
2018-08-31T14:01:31.996Z,1.70
2018-08-31T14:03:59.746Z,2.03
2018-08-31T14:06:27.518Z,1.50
2018-08-31T14:08:55.220Z,1.40
2018-08-31T14:11:22.715Z,1.80
2018-08-31T14:13:51.052Z,1.57
2018-08-31T14:16:18.790Z,1.50
2018-08-31T14:18:46.243Z,1.90
2018-08-31T14:21:13.850Z,1.63
2018-08-31T14:23:41.703Z,1.20
2018-08-31T14:26:09.234Z,1.00
2018-08-31T14:28:36.895Z,1.30
2018-08-31T14:31:04.599Z,1.67
2018-08-31T14:33:32.221Z,1.37
2018-08-31T14:35:59.983Z,1.63
2018-08-31T14:38:27.895Z,2.57
2018-08-31T14:40:55.536Z,1.30
2018-08-31T14:43:23.237Z,1.80
2018-08-31T14:45:51.192Z,1.40
2018-08-31T14:48:19.034Z,1.20
2018-08-31T14:50:47.751Z,1.70
2018-08-31T14:53:15.780Z,1.53
2018-08-31T14:55:43.409Z,1.50
2018-08-31T14:58:12.137Z,1.40
2018-08-31T15:00:39.698Z,1.60
2018-08-31T15:03:07.248Z,1.10
2018-08-31T15:05:34.916Z,1.20
2018-08-31T15:08:02.464Z,1.30
2018-08-31T15:10:29.903Z,1.33
2018-08-31T15:12:59.527Z,1.50
2018-08-31T15:15:27.531Z,1.63
2018-08-31T15:17:55.098Z,1.70
2018-08-31T15:20:22.931Z,1.73
2018-08-31T15:22:50.575Z,1.20
2018-08-31T15:25:18.469Z,1.70
2018-08-31T15:27:45.984Z,1.33
2018-08-31T15:30:13.481Z,1.37
2018-08-31T15:32:41.128Z,1.40
2018-08-31T15:35:08.763Z,1.20
2018-08-31T15:37:36.235Z,1.90
2018-08-31T15:40:03.698Z,1.30
2018-08-31T15:42:31.579Z,1.10
2018-08-31T15:45:01.199Z,2.10
2018-08-31T15:47:32.415Z,1.20
2018-08-31T15:49:59.927Z,1.43
2018-08-31T15:52:29.938Z,2.27
2018-08-31T15:54:58.583Z,2.40
2018-08-31T15:57:26.352Z,1.60
2018-08-31T15:59:53.903Z,1.20
2018-08-31T16:02:21.443Z,1.40
2018-08-31T16:04:49.515Z,1.67
2018-08-31T16:07:17.173Z,1.57
2018-08-31T16:09:45.462Z,1.80
2018-08-31T16:12:13.407Z,1.30
2018-08-31T16:14:41.033Z,1.30
2018-08-31T16:17:08.731Z,1.77
2018-08-31T16:19:36.182Z,1.63
2018-08-31T16:22:03.699Z,1.80
2018-08-31T16:24:31.239Z,1.47
2018-08-31T16:26:59.226Z,1.67
2018-08-31T16:29:26.726Z,1.70
2018-08-31T16:31:54.519Z,1.93
2018-08-31T16:34:22.092Z,1.90
2018-08-31T16:36:51.910Z,1.67
2018-08-31T16:39:19.502Z,1.77
2018-08-31T16:41:47.004Z,2.50
2018-08-31T16:44:14.519Z,1.87
2018-08-31T16:46:41.991Z,1.80
2018-08-31T16:49:09.570Z,1.40
2018-08-31T16:51:38.446Z,1.57
2018-08-31T16:54:06.033Z,1.40
2018-08-31T16:56:33.598Z,1.50
2018-08-31T16:59:01.295Z,1.60
2018-08-31T17:01:28.933Z,1.53
2018-08-31T17:03:56.714Z,1.70
2018-08-31T17:06:24.171Z,2.37
2018-08-31T17:08:51.855Z,1.73
2018-08-31T17:11:19.351Z,2.20
2018-08-31T17:13:46.867Z,1.93
2018-08-31T17:16:14.371Z,1.90
2018-08-31T17:18:42.007Z,2.30
2018-08-31T17:21:09.556Z,1.63
2018-08-31T17:23:37.242Z,2.20
2018-08-31T17:26:04.803Z,2.10
2018-08-31T17:28:37.909Z,2.20
2018-08-31T17:31:11.132Z,1.83
2018-08-31T17:33:44.430Z,1.57
2018-08-31T17:36:17.538Z,1.90
2018-08-31T17:38:45.043Z,1.80
2018-08-31T17:41:12.526Z,1.60
2018-08-31T17:43:39.999Z,2.17
2018-08-31T17:46:07.471Z,2.00
2018-08-31T17:48:34.988Z,1.90
2018-08-31T17:51:05.595Z,1.50
2018-08-31T17:53:33.126Z,2.83
2018-08-31T17:56:00.784Z,1.63
2018-08-31T17:58:28.317Z,1.53
2018-08-31T18:00:55.805Z,1.77
2018-08-31T18:03:23.280Z,1.70
2018-08-31T18:05:51.305Z,1.63
2018-08-31T18:08:18.733Z,1.80
2018-08-31T18:10:47.322Z,1.50
2018-08-31T18:13:14.843Z,1.83
2018-08-31T18:15:42.645Z,3.13
2018-08-31T18:18:10.212Z,1.70
2018-08-31T18:20:37.915Z,1.77
2018-08-31T18:23:05.339Z,1.70
2018-08-31T18:25:32.821Z,1.83
2018-08-31T18:28:00.340Z,2.10
2018-08-31T18:30:28.247Z,1.80
2018-08-31T18:32:55.650Z,1.63
2018-08-31T18:35:24.175Z,2.20
2018-08-31T18:37:51.712Z,1.47
2018-08-31T18:40:19.264Z,2.17
2018-08-31T18:42:46.878Z,2.20
2018-08-31T18:45:19.782Z,1.70
2018-08-31T18:47:47.929Z,2.00
2018-08-31T18:50:15.484Z,2.00
2018-08-31T18:52:43.109Z,1.80
2018-08-31T18:55:10.726Z,1.90
2018-08-31T18:57:38.319Z,1.67
2018-08-31T19:00:06.132Z,2.47
2018-08-31T19:02:34.287Z,2.17
2018-08-31T19:05:01.962Z,2.43
2018-08-31T19:07:30.027Z,1.63
2018-08-31T19:09:57.920Z,2.63
2018-08-31T19:12:25.839Z,2.50
2018-08-31T19:14:54.032Z,2.13
2018-08-31T19:17:22.282Z,2.27
2018-08-31T19:19:50.560Z,2.07
2018-08-31T19:22:18.778Z,2.03
2018-08-31T19:24:46.903Z,2.30
2018-08-31T19:27:15.054Z,2.83
2018-08-31T19:29:43.124Z,2.03
2018-08-31T19:32:11.504Z,2.27
2018-08-31T19:34:39.597Z,1.70
2018-08-31T19:37:07.865Z,1.90
2018-08-31T19:39:36.050Z,2.37
2018-08-31T19:42:04.338Z,1.83
2018-08-31T19:44:32.173Z,1.80
2018-08-31T19:47:00.458Z,2.00
2018-08-31T19:49:28.343Z,1.70
2018-08-31T19:51:56.723Z,2.07
2018-08-31T19:54:24.290Z,1.90
2018-08-31T19:56:51.867Z,2.10
2018-08-31T19:59:19.971Z,2.20
2018-08-31T20:01:48.345Z,2.30
2018-08-31T20:04:15.806Z,2.20
2018-08-31T20:06:43.315Z,2.07
2018-08-31T20:09:10.841Z,2.57
2018-08-31T20:11:38.902Z,1.93
2018-08-31T20:14:06.901Z,2.30
2018-08-31T20:16:34.574Z,1.83
2018-08-31T20:19:01.981Z,2.30
2018-08-31T20:21:30.063Z,1.90
2018-08-31T20:23:57.528Z,2.17
2018-08-31T20:26:25.330Z,2.47
2018-08-31T20:28:52.716Z,1.90
2018-08-31T20:31:20.069Z,2.43
2018-08-31T20:33:47.439Z,2.30
2018-08-31T20:36:14.889Z,2.10
2018-08-31T20:38:42.364Z,2.20
2018-08-31T20:41:10.338Z,1.90
2018-08-31T20:43:37.816Z,2.40
2018-08-31T20:46:05.461Z,2.30
2018-08-31T20:48:32.953Z,1.60
2018-08-31T20:51:00.697Z,2.03
2018-08-31T20:53:28.121Z,2.20
2018-08-31T20:55:55.589Z,2.40
2018-08-31T20:58:23.008Z,2.03
2018-08-31T21:00:50.653Z,2.73
2018-08-31T21:03:18.426Z,1.83
2018-08-31T21:05:46.049Z,4.43
2018-08-31T21:08:13.686Z,2.17
2018-08-31T21:10:41.208Z,2.47
2018-08-31T21:13:08.846Z,2.27
2018-08-31T21:15:36.355Z,2.17
2018-08-31T21:18:03.916Z,2.00
2018-08-31T21:20:31.272Z,2.60
2018-08-31T21:22:58.653Z,3.27
2018-08-31T21:25:26.296Z,2.70
2018-08-31T21:27:53.670Z,2.93
2018-08-31T21:30:21.121Z,3.07
2018-08-31T21:32:48.474Z,3.20
2018-08-31T21:35:16.366Z,3.27
2018-08-31T21:37:43.753Z,2.80
2018-08-31T21:40:11.199Z,3.33
2018-08-31T21:42:38.699Z,3.70
2018-08-31T21:45:06.015Z,3.23
2018-08-31T21:47:33.433Z,3.77
2018-08-31T21:50:00.854Z,3.47
2018-08-31T21:52:28.383Z,3.90
2018-08-31T21:54:55.773Z,4.43
2018-08-31T21:57:23.170Z,3.00
2018-08-31T21:59:50.557Z,3.60
2018-08-31T22:02:17.929Z,4.20
2018-08-31T22:04:45.303Z,3.97
2018-08-31T22:07:12.975Z,4.03
2018-08-31T22:09:40.510Z,2.93
2018-08-31T22:12:07.913Z,2.93
2018-08-31T22:14:35.270Z,3.80
2018-08-31T22:17:05.686Z,3.03
2018-08-31T22:19:33.097Z,3.17
2018-08-31T22:22:00.459Z,4.60
2018-08-31T22:24:27.837Z,3.43
2018-08-31T22:26:55.230Z,3.40
2018-08-31T22:29:22.624Z,3.23
2018-08-31T22:31:50.050Z,3.73
2018-08-31T22:34:33.976Z,3.83
2018-08-31T22:37:01.833Z,3.20
2018-08-31T22:39:29.213Z,3.80
2018-08-31T22:41:57.370Z,3.43
2018-08-31T22:44:24.751Z,4.60
2018-08-31T22:46:52.126Z,3.40
2018-08-31T22:49:19.519Z,3.63
2018-08-31T22:51:47.237Z,5.60
2018-08-31T22:54:14.661Z,4.70
2018-08-31T22:56:42.126Z,4.37
2018-08-31T22:59:09.637Z,4.17
2018-08-31T23:01:37.034Z,4.10
2018-08-31T23:04:04.441Z,3.70
2018-08-31T23:06:31.858Z,3.40
2018-08-31T23:08:59.299Z,4.10
2018-08-31T23:11:26.674Z,3.17
2018-08-31T23:13:54.071Z,3.60
2018-08-31T23:16:21.425Z,3.70
2018-08-31T23:18:48.862Z,3.60
2018-08-31T23:21:16.249Z,3.70
2018-08-31T23:23:48.395Z,3.93
2018-08-31T23:26:16.175Z,4.37
2018-08-31T23:28:43.571Z,3.33
2018-08-31T23:31:10.983Z,3.70
2018-08-31T23:33:38.382Z,4.47
2018-08-31T23:36:05.797Z,3.87
2018-08-31T23:38:33.250Z,4.97
2018-08-31T23:41:00.878Z,3.77
2018-08-31T23:43:28.314Z,4.20
2018-08-31T23:45:55.753Z,3.90
2018-08-31T23:48:23.118Z,4.07
2018-08-31T23:50:50.523Z,4.10
2018-08-31T23:53:17.911Z,4.23
2018-08-31T23:55:45.321Z,4.30
2018-08-31T23:58:12.697Z,4.13
